Time;durP1;ratioP1;P1;durP2;ratioP2;P2;SDS_P1;SDS_P2;PMS_P1;PMS_P2;Temp;Humidity;BMP_temperature;BMP_pressure;BME280_temperature;BME280_humidity;BME280_pressure;Samples;Min_cycle;Max_cycle;Signal;HPM_P1;HPM_P2
2022/09/04 00:00:13;;;;;;;;;;;;;;;;;;5015783;28;19979;-27
2022/09/04 00:02:39;;;;;;;;;;;;;;;;;;5015747;28;19914;-27
2022/09/04 00:05:05;;;;;;;;;;;;;;;;;;5015756;28;20426;-27
2022/09/04 00:07:31;;;;;;;;;;;;;;;;;;5015700;28;19913;-27
2022/09/04 00:09:57;;;;;;;;;;;;;;;;;;5015931;28;19971;-27
2022/09/04 00:12:25;;;;;;;;;;;;;;;;;;5014788;28;21290;-27
2022/09/04 00:14:51;;;;;;;;;;;;;;;;;;5015831;28;19910;-27
2022/09/04 00:17:17;;;;;;;;;;;;;;;;;;5015534;28;20352;-27
2022/09/04 00:19:43;;;;;;;;;;;;;;;;;;5015512;28;19909;-27
2022/09/04 00:22:09;;;;;;;;;;;;;;;;;;5015350;28;19924;-27
2022/09/04 00:24:35;;;;;;;;;;;;;;;;;;5015497;28;20256;-27
2022/09/04 00:27:01;;;;;;;;;;;;;;;;;;5015641;28;19914;-28
2022/09/04 00:29:27;;;;;;;;;;;;;;;;;;5015424;28;19945;-27
2022/09/04 00:31:53;;;;;;;;;;;;;;;;;;5015271;28;20349;-28
2022/09/04 00:34:19;;;;;;;;;;;;;;;;;;5015665;28;19913;-27
2022/09/04 00:36:45;;;;;;;;;;;;;;;;;;5015369;28;19913;-27
2022/09/04 00:39:11;;;;;;;;;;;;;;;;;;5015576;28;19910;-28
2022/09/04 00:41:37;;;;;;;;;;;;;;;;;;5015505;28;19917;-27
2022/09/04 00:44:03;;;;;;;;;;;;;;;;;;5015211;28;19910;-27
2022/09/04 00:46:29;;;;;;;;;;;;;;;;;;5015291;28;20008;-27
2022/09/04 00:48:55;;;;;;;;;;;;;;;;;;5015210;28;19972;-27
2022/09/04 00:51:21;;;;;;;;;;;;;;;;;;5015213;28;19914;-27
2022/09/04 00:53:47;;;;;;;;;;;;;;;;;;5015136;28;20334;-27
2022/09/04 00:56:14;;;;;;;;;;;;;;;;;;5015206;28;19917;-27
2022/09/04 00:58:40;;;;;;;;;;;;;;;;;;5015169;28;19917;-27
2022/09/04 01:01:06;;;;;;;;;;;;;;;;;;5015981;28;20008;-27
2022/09/04 01:03:32;;;;;;;;;;;;;;;;;;5014731;28;19984;-28
2022/09/04 01:05:58;;;;;;;;;;;;;;;;;;5015054;28;19974;-27
2022/09/04 01:08:24;;;;;;;;;;;;;;;;;;5015117;28;19937;-27
2022/09/04 01:10:50;;;;;;;;;;;;;;;;;;5015010;28;20248;-27
2022/09/04 01:13:17;;;;;;;;;;;;;;;;;;5016033;28;20240;-27
2022/09/04 01:15:43;;;;;;;;;;;;;;;;;;5015092;28;19912;-27
2022/09/04 01:18:09;;;;;;;;;;;;;;;;;;5015270;28;20041;-27
2022/09/04 01:20:35;;;;;;;;;;;;;;;;;;5014916;28;19967;-27
2022/09/04 01:23:01;;;;;;;;;;;;;;;;;;5015111;28;19925;-27
2022/09/04 01:25:27;;;;;;;;;;;;;;;;;;5015208;28;19914;-27
2022/09/04 01:27:53;;;;;;;;;;;;;;;;;;5014852;28;19957;-27
2022/09/04 01:30:19;;;;;;;;;;;;;;;;;;5014815;28;19947;-27
2022/09/04 01:32:45;;;;;;;;;;;;;;;;;;5015025;28;19948;-27
2022/09/04 01:35:11;;;;;;;;;;;;;;;;;;5014763;28;19918;-27
2022/09/04 01:37:38;;;;;;;;;;;;;;;;;;5017633;28;19967;-27
2022/09/04 01:40:04;;;;;;;;;;;;;;;;;;5018415;28;19913;-27
2022/09/04 01:42:30;;;;;;;;;;;;;;;;;;5018122;28;19968;-27
2022/09/04 01:44:56;;;;;;;;;;;;;;;;;;5019136;28;19909;-27
2022/09/04 01:47:22;;;;;;;;;;;;;;;;;;5018273;28;19928;-27
2022/09/04 01:49:48;;;;;;;;;;;;;;;;;;5018737;28;19914;-27
2022/09/04 01:52:14;;;;;;;;;;;;;;;;;;5018142;28;19917;-27
2022/09/04 01:54:40;;;;;;;;;;;;;;;;;;5018648;28;19921;-27
2022/09/04 01:57:06;;;;;;;;;;;;;;;;;;5018060;28;19976;-27
2022/09/04 01:59:32;;;;;;;;;;;;;;;;;;5018034;28;19979;-28
2022/09/04 02:01:58;;;;;;;;;;;;;;;;;;5018601;28;19925;-27
2022/09/04 02:04:24;;;;;;;;;;;;;;;;;;5017720;28;19922;-27
2022/09/04 02:06:50;;;;;;;;;;;;;;;;;;5018435;28;19952;-28
2022/09/04 02:09:16;;;;;;;;;;;;;;;;;;5017875;28;20293;-27
2022/09/04 02:11:44;;;;;;;;;;;;;;;;;;5018024;28;19923;-27
2022/09/04 02:14:10;;;;;;;;;;;;;;;;;;5018311;28;19916;-27
2022/09/04 02:16:35;;;;;;;;;;;;;;;;;;5017970;28;20240;-27
2022/09/04 02:19:02;;;;;;;;;;;;;;;;;;5018227;28;19920;-27
2022/09/04 02:21:27;;;;;;;;;;;;;;;;;;5017791;28;19920;-27
2022/09/04 02:23:53;;;;;;;;;;;;;;;;;;5018050;28;20313;-27
2022/09/04 02:26:19;;;;;;;;;;;;;;;;;;5017761;28;19914;-27
2022/09/04 02:28:46;;;;;;;;;;;;;;;;;;5017480;28;19913;-27
2022/09/04 02:31:12;;;;;;;;;;;;;;;;;;5017372;28;19918;-27
2022/09/04 02:33:38;;;;;;;;;;;;;;;;;;5017321;28;19920;-27
2022/09/04 02:36:04;;;;;;;;;;;;;;;;;;5017865;28;19921;-27
2022/09/04 02:38:30;;;;;;;;;;;;;;;;;;5017299;28;20241;-27
2022/09/04 02:40:57;;;;;;;;;;;;;;;;;;5017263;28;20268;-27
2022/09/04 02:43:23;;;;;;;;;;;;;;;;;;5017243;28;20012;-27
2022/09/04 02:45:49;;;;;;;;;;;;;;;;;;5017432;28;19941;-27
2022/09/04 02:48:15;;;;;;;;;;;;;;;;;;5016331;28;20249;-27
2022/09/04 02:50:41;;;;;;;;;;;;;;;;;;5017073;28;19909;-27
2022/09/04 02:53:07;;;;;;;;;;;;;;;;;;5017463;28;20019;-27
2022/09/04 02:55:33;;;;;;;;;;;;;;;;;;5016983;28;19910;-27
2022/09/04 02:58:00;;;;;;;;;;;;;;;;;;5016926;28;19914;-27
2022/09/04 03:00:26;;;;;;;;;;;;;;;;;;5016864;28;19909;-27
2022/09/04 03:02:52;;;;;;;;;;;;;;;;;;5016492;28;20029;-27
2022/09/04 03:05:18;;;;;;;;;;;;;;;;;;5017399;28;19941;-27
2022/09/04 03:07:44;;;;;;;;;;;;;;;;;;5016746;28;20264;-27
2022/09/04 03:10:10;;;;;;;;;;;;;;;;;;5017021;28;19909;-27
2022/09/04 03:12:36;;;;;;;;;;;;;;;;;;5016560;28;20244;-27
2022/09/04 03:15:02;;;;;;;;;;;;;;;;;;5016587;28;19917;-27
2022/09/04 03:17:28;;;;;;;;;;;;;;;;;;5016817;28;19914;-27
2022/09/04 03:19:54;;;;;;;;;;;;;;;;;;5016528;28;20252;-27
2022/09/04 03:22:20;;;;;;;;;;;;;;;;;;5016348;28;19949;-27
2022/09/04 03:24:46;;;;;;;;;;;;;;;;;;5016713;28;20276;-27
2022/09/04 03:27:12;;;;;;;;;;;;;;;;;;5016373;28;19924;-27
2022/09/04 03:29:38;;;;;;;;;;;;;;;;;;5016366;28;20362;-27
2022/09/04 03:32:04;;;;;;;;;;;;;;;;;;5016499;28;19932;-27
2022/09/04 03:34:30;;;;;;;;;;;;;;;;;;5016215;28;19909;-26
2022/09/04 03:36:56;;;;;;;;;;;;;;;;;;5016763;28;19914;-27
2022/09/04 03:39:22;;;;;;;;;;;;;;;;;;5017221;28;19918;-27
2022/09/04 03:41:48;;;;;;;;;;;;;;;;;;5016250;28;20017;-26
2022/09/04 03:44:14;;;;;;;;;;;;;;;;;;5016133;28;19910;-27
2022/09/04 03:46:40;;;;;;;;;;;;;;;;;;5016008;28;19909;-27
2022/09/04 03:49:06;;;;;;;;;;;;;;;;;;5016299;28;19952;-26
2022/09/04 03:51:32;;;;;;;;;;;;;;;;;;5016227;28;20004;-27
2022/09/04 03:53:58;;;;;;;;;;;;;;;;;;5015834;28;20228;-26
2022/09/04 03:56:24;;;;;;;;;;;;;;;;;;5016100;28;19909;-27
2022/09/04 03:58:50;;;;;;;;;;;;;;;;;;5015633;28;20264;-27
2022/09/04 04:01:17;;;;;;;;;;;;;;;;;;5016031;28;19920;-27
2022/09/04 04:03:43;;;;;;;;;;;;;;;;;;5015618;28;20012;-26
2022/09/04 04:06:09;;;;;;;;;;;;;;;;;;5016271;28;19949;-26
2022/09/04 04:08:35;;;;;;;;;;;;;;;;;;5015703;28;20392;-26
2022/09/04 04:11:02;;;;;;;;;;;;;;;;;;5015925;28;19917;-26
2022/09/04 04:13:28;;;;;;;;;;;;;;;;;;5015826;28;19920;-26
2022/09/04 04:15:53;;;;;;;;;;;;;;;;;;5015633;28;19909;-26
2022/09/04 04:18:19;;;;;;;;;;;;;;;;;;5016097;28;19949;-26
2022/09/04 04:20:45;;;;;;;;;;;;;;;;;;5016074;28;19961;-26
2022/09/04 04:23:16;;;;;;;;;;;;;;;;;;5015457;28;20028;-26
2022/09/04 04:25:42;;;;;;;;;;;;;;;;;;5015462;28;19928;-26
2022/09/04 04:28:11;;;;;;;;;;;;;;;;;;5015389;28;19913;-26
2022/09/04 04:30:37;;;;;;;;;;;;;;;;;;5015707;28;19910;-26
2022/09/04 04:33:03;;;;;;;;;;;;;;;;;;5015541;28;19913;-26
2022/09/04 04:35:29;;;;;;;;;;;;;;;;;;5015350;28;19973;-26
2022/09/04 04:37:55;;;;;;;;;;;;;;;;;;5015385;28;19913;-26
2022/09/04 04:40:21;;;;;;;;;;;;;;;;;;5015371;28;19940;-26
2022/09/04 04:42:47;;;;;;;;;;;;;;;;;;5015099;28;19924;-26
2022/09/04 04:47:58;;;;;;;;;;;;;;;;;;5015330;28;19975;-26
2022/09/04 04:50:26;;;;;;;;;;;;;;;;;;5015507;28;19921;-26
2022/09/04 04:52:52;;;;;;;;;;;;;;;;;;5015396;28;20241;-26
2022/09/04 04:55:20;;;;;;;;;;;;;;;;;;5016326;28;19909;-26
2022/09/04 04:57:46;;;;;;;;;;;;;;;;;;5015121;28;19914;-26
2022/09/04 05:00:14;;;;;;;;;;;;;;;;;;5015117;28;19917;-26
2022/09/04 05:02:40;;;;;;;;;;;;;;;;;;5014792;28;20055;-26
2022/09/04 05:05:06;;;;;;;;;;;;;;;;;;5015056;28;20351;-26
2022/09/04 05:07:34;;;;;;;;;;;;;;;;;;5015070;28;19925;-26
2022/09/04 05:10:04;;;;;;;;;;;;;;;;;;5015040;28;20008;-26
2022/09/04 05:12:30;;;;;;;;;;;;;;;;;;5017848;28;19913;-27
2022/09/04 05:14:56;;;;;;;;;;;;;;;;;;5019143;28;19971;-27
2022/09/04 05:17:22;;;;;;;;;;;;;;;;;;5018776;28;19917;-27
2022/09/04 05:19:48;;;;;;;;;;;;;;;;;;5019053;28;19909;-27
2022/09/04 05:22:14;;;;;;;;;;;;;;;;;;5018850;28;20344;-27
2022/09/04 05:24:40;;;;;;;;;;;;;;;;;;5018678;28;19915;-27
2022/09/04 05:27:06;;;;;;;;;;;;;;;;;;5018927;28;19921;-26
2022/09/04 05:29:32;;;;;;;;;;;;;;;;;;5019398;28;19914;-27
2022/09/04 05:31:58;;;;;;;;;;;;;;;;;;5018484;28;20008;-27
2022/09/04 05:34:24;;;;;;;;;;;;;;;;;;5018560;28;19910;-27
2022/09/04 05:36:50;;;;;;;;;;;;;;;;;;5018478;28;19936;-27
2022/09/04 05:39:16;;;;;;;;;;;;;;;;;;5018409;28;19963;-27
2022/09/04 05:41:42;;;;;;;;;;;;;;;;;;5018314;28;19957;-27
2022/09/04 05:44:08;;;;;;;;;;;;;;;;;;5018849;28;20363;-27
2022/09/04 05:46:34;;;;;;;;;;;;;;;;;;5018259;28;19936;-26
2022/09/04 05:49:00;;;;;;;;;;;;;;;;;;5018255;28;19910;-26
2022/09/04 05:51:26;;;;;;;;;;;;;;;;;;5018169;28;19928;-27
2022/09/04 05:53:52;;;;;;;;;;;;;;;;;;5018074;28;19920;-27
2022/09/04 05:56:18;;;;;;;;;;;;;;;;;;5019165;28;19944;-27
2022/09/04 05:58:44;;;;;;;;;;;;;;;;;;5018455;28;20333;-27
2022/09/04 06:01:12;;;;;;;;;;;;;;;;;;5018307;28;20356;-27
2022/09/04 06:03:38;;;;;;;;;;;;;;;;;;5017597;28;20341;-27
2022/09/04 06:06:04;;;;;;;;;;;;;;;;;;5018451;28;19917;-27
2022/09/04 06:08:31;;;;;;;;;;;;;;;;;;5017859;28;19917;-27
2022/09/04 06:10:57;;;;;;;;;;;;;;;;;;5017823;28;19925;-27
2022/09/04 06:13:23;;;;;;;;;;;;;;;;;;5017710;28;19909;-27
2022/09/04 06:15:49;;;;;;;;;;;;;;;;;;5017681;28;19909;-27
2022/09/04 06:18:15;;;;;;;;;;;;;;;;;;5017679;28;19997;-27
2022/09/04 06:20:41;;;;;;;;;;;;;;;;;;5017660;28;19905;-26
2022/09/04 06:23:07;;;;;;;;;;;;;;;;;;5017710;28;19917;-27
2022/09/04 06:25:33;;;;;;;;;;;;;;;;;;5017788;28;19924;-27
2022/09/04 06:27:58;;;;;;;;;;;;;;;;;;5017493;28;19909;-27
2022/09/04 06:30:25;;;;;;;;;;;;;;;;;;5017505;28;19976;-27
2022/09/04 06:32:51;;;;;;;;;;;;;;;;;;5017284;28;19913;-27
2022/09/04 06:35:17;;;;;;;;;;;;;;;;;;5017396;28;19921;-27
2022/09/04 06:37:43;;;;;;;;;;;;;;;;;;5017269;28;19914;-27
2022/09/04 06:40:09;;;;;;;;;;;;;;;;;;5017831;28;19924;-26
2022/09/04 06:42:35;;;;;;;;;;;;;;;;;;5017345;28;19928;-27
2022/09/04 06:45:01;;;;;;;;;;;;;;;;;;5017477;28;20003;-27
2022/09/04 06:47:27;;;;;;;;;;;;;;;;;;5017149;28;20299;-27
2022/09/04 06:49:53;;;;;;;;;;;;;;;;;;5017707;28;19910;-27
2022/09/04 06:52:20;;;;;;;;;;;;;;;;;;5016945;28;19913;-26
2022/09/04 06:54:47;;;;;;;;;;;;;;;;;;5017049;28;19920;-27
2022/09/04 06:57:13;;;;;;;;;;;;;;;;;;5017190;28;19968;-27
2022/09/04 06:59:39;;;;;;;;;;;;;;;;;;5016951;28;20257;-27
2022/09/04 07:02:05;;;;;;;;;;;;;;;;;;5016678;28;20336;-27
2022/09/04 07:04:31;;;;;;;;;;;;;;;;;;5016685;28;20280;-27
2022/09/04 07:06:57;;;;;;;;;;;;;;;;;;5017034;28;19910;-27
2022/09/04 07:09:24;;;;;;;;;;;;;;;;;;5016746;28;20356;-27
2022/09/04 07:11:50;;;;;;;;;;;;;;;;;;5016881;28;20240;-27
2022/09/04 07:14:18;;;;;;;;;;;;;;;;;;5016931;28;19909;-27
2022/09/04 07:16:44;;;;;;;;;;;;;;;;;;5016870;28;19988;-27
2022/09/04 07:19:10;;;;;;;;;;;;;;;;;;5016592;28;20363;-27
2022/09/04 07:21:38;;;;;;;;;;;;;;;;;;5016742;28;19928;-27
2022/09/04 07:24:04;;;;;;;;;;;;;;;;;;5017002;28;19914;-27
2022/09/04 07:26:30;;;;;;;;;;;;;;;;;;5016458;28;19948;-27
2022/09/04 07:28:56;;;;;;;;;;;;;;;;;;5016390;28;19999;-27
2022/09/04 07:31:23;;;;;;;;;;;;;;;;;;5017403;28;19917;-27
2022/09/04 07:33:49;;;;;;;;;;;;;;;;;;5015765;28;19964;-27
2022/09/04 07:36:15;;;;;;;;;;;;;;;;;;5016262;28;19914;-27
2022/09/04 07:38:41;;;;;;;;;;;;;;;;;;5016253;28;19914;-28
2022/09/04 07:41:08;;;;;;;;;;;;;;;;;;5016459;28;19920;-27
2022/09/04 07:43:34;;;;;;;;;;;;;;;;;;5016226;28;19917;-27
2022/09/04 07:46:00;;;;;;;;;;;;;;;;;;5016362;28;19921;-27
2022/09/04 07:48:29;;;;;;;;;;;;;;;;;;5016045;28;20373;-27
2022/09/04 07:51:06;;;;;;;;;;;;;;;;;;5016022;28;19920;-27
2022/09/04 07:53:32;;;;;;;;;;;;;;;;;;5015951;28;20431;-27
2022/09/04 07:55:58;;;;;;;;;;;;;;;;;;5015002;28;19913;-27
2022/09/04 07:58:24;;;;;;;;;;;;;;;;;;5015926;28;20347;-27
2022/09/04 08:00:50;;;;;;;;;;;;;;;;;;5016417;28;19913;-27
2022/09/04 08:03:16;;;;;;;;;;;;;;;;;;5015703;28;19944;-27
2022/09/04 08:05:42;;;;;;;;;;;;;;;;;;5016577;28;19913;-27
2022/09/04 08:08:09;;;;;;;;;;;;;;;;;;5016318;28;20305;-27
2022/09/04 08:10:35;;;;;;;;;;;;;;;;;;5016033;28;20248;-27
2022/09/04 08:13:01;;;;;;;;;;;;;;;;;;5015870;28;20001;-27
2022/09/04 08:15:27;;;;;;;;;;;;;;;;;;5016201;28;19989;-28
2022/09/04 08:17:53;;;;;;;;;;;;;;;;;;5015623;28;19953;-28
2022/09/04 08:20:19;;;;;;;;;;;;;;;;;;5015562;28;19909;-27
2022/09/04 08:22:45;;;;;;;;;;;;;;;;;;5015678;28;19956;-27
2022/09/04 08:25:11;;;;;;;;;;;;;;;;;;5016067;28;19913;-27
2022/09/04 08:27:37;;;;;;;;;;;;;;;;;;5015768;28;19963;-27
2022/09/04 08:30:03;;;;;;;;;;;;;;;;;;5015464;28;19920;-27
2022/09/04 08:32:30;;;;;;;;;;;;;;;;;;5015366;28;19916;-27
2022/09/04 08:34:56;;;;;;;;;;;;;;;;;;5015392;28;19914;-27
2022/09/04 08:37:22;;;;;;;;;;;;;;;;;;5015671;28;19918;-27
2022/09/04 08:39:48;;;;;;;;;;;;;;;;;;5015426;28;19936;-27
2022/09/04 08:42:14;;;;;;;;;;;;;;;;;;5015213;28;20458;-27
2022/09/04 08:44:40;;;;;;;;;;;;;;;;;;5015618;28;19964;-28
2022/09/04 08:47:06;;;;;;;;;;;;;;;;;;5018268;28;19969;-27
2022/09/04 08:49:32;;;;;;;;;;;;;;;;;;5019676;28;20016;-27
2022/09/04 08:51:58;;;;;;;;;;;;;;;;;;5019541;28;19913;-27
2022/09/04 08:54:24;;;;;;;;;;;;;;;;;;5019391;28;20372;-27
2022/09/04 08:56:50;;;;;;;;;;;;;;;;;;5019220;28;19914;-27
2022/09/04 08:59:16;;;;;;;;;;;;;;;;;;5019501;28;19925;-27
2022/09/04 09:01:42;;;;;;;;;;;;;;;;;;5019341;28;19917;-27
2022/09/04 09:04:10;;;;;;;;;;;;;;;;;;5018913;28;20398;-27
2022/09/04 09:06:36;;;;;;;;;;;;;;;;;;5019104;28;19913;-27
2022/09/04 09:09:02;;;;;;;;;;;;;;;;;;5019296;28;19913;-27
2022/09/04 09:11:28;;;;;;;;;;;;;;;;;;5018932;28;19913;-27
2022/09/04 09:13:54;;;;;;;;;;;;;;;;;;5018879;28;19972;-27
2022/09/04 09:16:20;;;;;;;;;;;;;;;;;;5019450;28;19920;-27
2022/09/04 09:18:46;;;;;;;;;;;;;;;;;;5019388;28;19909;-27
2022/09/04 09:21:13;;;;;;;;;;;;;;;;;;5018823;28;19917;-27
2022/09/04 09:23:40;;;;;;;;;;;;;;;;;;5018606;28;19924;-27
2022/09/04 09:26:07;;;;;;;;;;;;;;;;;;5018986;28;19913;-27
2022/09/04 09:28:33;;;;;;;;;;;;;;;;;;5018642;28;20379;-27
2022/09/04 09:30:59;;;;;;;;;;;;;;;;;;5018648;28;19914;-27
2022/09/04 09:33:25;;;;;;;;;;;;;;;;;;5018815;28;19910;-27
2022/09/04 09:35:54;;;;;;;;;;;;;;;;;;5018801;28;20248;-27
2022/09/04 09:38:20;;;;;;;;;;;;;;;;;;5019345;28;19997;-27
2022/09/04 09:40:46;;;;;;;;;;;;;;;;;;5018373;28;19967;-27
2022/09/04 09:43:12;;;;;;;;;;;;;;;;;;5018262;28;19964;-27
2022/09/04 09:45:38;;;;;;;;;;;;;;;;;;5018393;28;19913;-27
2022/09/04 09:48:04;;;;;;;;;;;;;;;;;;5018581;28;20240;-27
2022/09/04 09:50:30;;;;;;;;;;;;;;;;;;5018320;28;19910;-27
2022/09/04 09:52:56;;;;;;;;;;;;;;;;;;5018102;28;19914;-27
2022/09/04 09:55:22;;;;;;;;;;;;;;;;;;5018174;28;19981;-27
2022/09/04 09:57:48;;;;;;;;;;;;;;;;;;5017655;28;19920;-27
2022/09/04 10:00:14;;;;;;;;;;;;;;;;;;5018375;28;20337;-27
2022/09/04 10:02:40;;;;;;;;;;;;;;;;;;5017681;28;19918;-28
2022/09/04 10:05:06;;;;;;;;;;;;;;;;;;5018300;28;19921;-27
2022/09/04 10:07:35;;;;;;;;;;;;;;;;;;5018208;28;19917;-27
2022/09/04 10:10:01;;;;;;;;;;;;;;;;;;5018156;28;19918;-27
2022/09/04 10:12:27;;;;;;;;;;;;;;;;;;5018121;28;19917;-28
2022/09/04 10:14:53;;;;;;;;;;;;;;;;;;5017857;28;20335;-27
2022/09/04 10:17:21;;;;;;;;;;;;;;;;;;5017757;28;19917;-27
2022/09/04 10:19:47;;;;;;;;;;;;;;;;;;5017790;28;19909;-27
2022/09/04 10:22:13;;;;;;;;;;;;;;;;;;5017532;28;19928;-27
2022/09/04 10:24:39;;;;;;;;;;;;;;;;;;5017939;28;20289;-27
2022/09/04 10:27:05;;;;;;;;;;;;;;;;;;5017883;28;19952;-27
2022/09/04 10:29:31;;;;;;;;;;;;;;;;;;5017553;28;19913;-27
2022/09/04 10:31:57;;;;;;;;;;;;;;;;;;5017709;28;19914;-27
2022/09/04 10:34:23;;;;;;;;;;;;;;;;;;5017779;28;19916;-26
2022/09/04 10:36:49;;;;;;;;;;;;;;;;;;5017653;28;19913;-27
2022/09/04 10:42:00;;;;;;;;;;;;;;;;;;5017479;28;19924;-26
2022/09/04 10:44:26;;;;;;;;;;;;;;;;;;5017256;28;19917;-26
2022/09/04 10:46:52;;;;;;;;;;;;;;;;;;5017173;28;19913;-26
2022/09/04 10:49:18;;;;;;;;;;;;;;;;;;5017125;28;19996;-27
2022/09/04 10:51:44;;;;;;;;;;;;;;;;;;5017157;28;19910;-27
2022/09/04 10:54:13;;;;;;;;;;;;;;;;;;5016940;28;19913;-27
2022/09/04 10:56:39;;;;;;;;;;;;;;;;;;5016998;28;19917;-27
2022/09/04 10:59:09;;;;;;;;;;;;;;;;;;5017246;28;19968;-27
2022/09/04 11:01:35;;;;;;;;;;;;;;;;;;5017077;28;20257;-26
2022/09/04 11:04:01;;;;;;;;;;;;;;;;;;5016612;28;19929;-27
2022/09/04 11:06:27;;;;;;;;;;;;;;;;;;5016811;28;20321;-27
2022/09/04 11:08:52;;;;;;;;;;;;;;;;;;5015870;28;19989;-27
2022/09/04 11:11:18;;;;;;;;;;;;;;;;;;5016800;28;19909;-27
2022/09/04 11:13:44;;;;;;;;;;;;;;;;;;5016716;28;19913;-27
2022/09/04 11:16:10;;;;;;;;;;;;;;;;;;5016935;28;19910;-27
2022/09/04 11:18:36;;;;;;;;;;;;;;;;;;5016556;28;19914;-26
2022/09/04 11:21:02;;;;;;;;;;;;;;;;;;5017167;28;19913;-26
2022/09/04 11:23:28;;;;;;;;;;;;;;;;;;5016300;28;19929;-27
2022/09/04 11:25:58;;;;;;;;;;;;;;;;;;5017077;28;19916;-27
2022/09/04 11:28:24;;;;;;;;;;;;;;;;;;5016377;28;19924;-27
2022/09/04 11:30:52;;;;;;;;;;;;;;;;;;5016365;28;19917;-26
2022/09/04 11:33:21;;;;;;;;;;;;;;;;;;5016549;28;19917;-26
2022/09/04 11:35:47;;;;;;;;;;;;;;;;;;5016298;28;19913;-26
2022/09/04 11:38:13;;;;;;;;;;;;;;;;;;5016281;28;19936;-26
2022/09/04 11:40:39;;;;;;;;;;;;;;;;;;5016252;28;19911;-26
2022/09/04 11:43:06;;;;;;;;;;;;;;;;;;5016315;28;20364;-26
2022/09/04 11:45:32;;;;;;;;;;;;;;;;;;5016429;28;20226;-26
2022/09/04 11:47:58;;;;;;;;;;;;;;;;;;5016347;28;20245;-26
2022/09/04 11:50:24;;;;;;;;;;;;;;;;;;5016062;28;19937;-26
2022/09/04 11:52:50;;;;;;;;;;;;;;;;;;5015953;28;19914;-26
2022/09/04 11:55:16;;;;;;;;;;;;;;;;;;5015995;28;19916;-26
2022/09/04 11:57:42;;;;;;;;;;;;;;;;;;5015930;28;20055;-26
2022/09/04 12:00:10;;;;;;;;;;;;;;;;;;5016206;28;19949;-26
2022/09/04 12:02:36;;;;;;;;;;;;;;;;;;5015493;28;19933;-26
2022/09/04 12:05:02;;;;;;;;;;;;;;;;;;5015777;28;19917;-27
2022/09/04 12:07:29;;;;;;;;;;;;;;;;;;5015777;28;19972;-27
2022/09/04 12:09:55;;;;;;;;;;;;;;;;;;5016061;28;20265;-27
2022/09/04 12:12:21;;;;;;;;;;;;;;;;;;5015632;28;19968;-27
2022/09/04 12:14:47;;;;;;;;;;;;;;;;;;5015695;28;19910;-27
2022/09/04 12:17:14;;;;;;;;;;;;;;;;;;5016257;28;19940;-27
2022/09/04 12:19:41;;;;;;;;;;;;;;;;;;5015503;28;19953;-27
2022/09/04 12:22:07;;;;;;;;;;;;;;;;;;5015462;28;19921;-27
2022/09/04 12:24:33;;;;;;;;;;;;;;;;;;5015852;28;20259;-27
2022/09/04 12:27:00;;;;;;;;;;;;;;;;;;5016086;28;20335;-27
2022/09/04 12:29:26;;;;;;;;;;;;;;;;;;5015792;28;19910;-27
2022/09/04 12:31:52;;;;;;;;;;;;;;;;;;5015417;28;19922;-27
2022/09/04 12:34:18;;;;;;;;;;;;;;;;;;5015744;28;19924;-27
2022/09/04 12:36:45;;;;;;;;;;;;;;;;;;5015969;28;19909;-27
2022/09/04 12:39:11;;;;;;;;;;;;;;;;;;5015387;28;20000;-26
2022/09/04 12:41:37;;;;;;;;;;;;;;;;;;5015321;28;19941;-27
2022/09/04 12:44:02;;;;;;;;;;;;;;;;;;5015279;28;20264;-27
2022/09/04 12:46:29;;;;;;;;;;;;;;;;;;5015616;28;19913;-27
2022/09/04 12:48:55;;;;;;;;;;;;;;;;;;5015292;28;19917;-27
2022/09/04 12:51:25;;;;;;;;;;;;;;;;;;5015303;28;19916;-27
2022/09/04 12:53:51;;;;;;;;;;;;;;;;;;5015203;28;19936;-27
2022/09/04 12:56:17;;;;;;;;;;;;;;;;;;5015152;28;19914;-27
2022/09/04 12:58:43;;;;;;;;;;;;;;;;;;5015151;28;19910;-27
2022/09/04 13:01:09;;;;;;;;;;;;;;;;;;5015211;28;19971;-27
2022/09/04 13:03:37;;;;;;;;;;;;;;;;;;5014968;28;19977;-27
2022/09/04 13:06:03;;;;;;;;;;;;;;;;;;5015119;28;20345;-27
2022/09/04 13:08:29;;;;;;;;;;;;;;;;;;5015174;28;19909;-27
2022/09/04 13:10:55;;;;;;;;;;;;;;;;;;5015034;28;19909;-27
2022/09/04 13:13:21;;;;;;;;;;;;;;;;;;5015301;28;19910;-27
2022/09/04 13:15:47;;;;;;;;;;;;;;;;;;5015674;28;20363;-27
2022/09/04 13:18:13;;;;;;;;;;;;;;;;;;5015027;28;19960;-27
2022/09/04 13:20:39;;;;;;;;;;;;;;;;;;5015010;28;19915;-27
2022/09/04 13:23:05;;;;;;;;;;;;;;;;;;5015136;28;19929;-27
2022/09/04 13:25:31;;;;;;;;;;;;;;;;;;5015302;28;19924;-27
2022/09/04 13:27:57;;;;;;;;;;;;;;;;;;5013972;28;20297;-27
2022/09/04 13:30:24;;;;;;;;;;;;;;;;;;5014894;28;19910;-27
2022/09/04 13:32:50;;;;;;;;;;;;;;;;;;5016925;28;19983;-27
2022/09/04 13:35:16;;;;;;;;;;;;;;;;;;5019175;28;19988;-27
2022/09/04 13:37:44;;;;;;;;;;;;;;;;;;5018522;28;20245;-27
2022/09/04 13:40:11;;;;;;;;;;;;;;;;;;5018497;28;19964;-27
2022/09/04 13:42:38;;;;;;;;;;;;;;;;;;5018301;28;19918;-27
2022/09/04 13:45:07;;;;;;;;;;;;;;;;;;5018414;28;19992;-27
2022/09/04 13:47:34;;;;;;;;;;;;;;;;;;5018648;28;19910;-27
2022/09/04 13:50:01;;;;;;;;;;;;;;;;;;5018292;28;20348;-27
2022/09/04 13:52:27;;;;;;;;;;;;;;;;;;5018476;28;19932;-27
2022/09/04 13:54:53;;;;;;;;;;;;;;;;;;5018222;28;19913;-27
2022/09/04 13:57:26;;;;;;;;;;;;;;;;;;5018196;28;20074;-27
2022/09/04 13:59:54;;;;;;;;;;;;;;;;;;5018488;28;19917;-27
2022/09/04 14:02:23;;;;;;;;;;;;;;;;;;5017861;28;19928;-27
2022/09/04 14:04:49;;;;;;;;;;;;;;;;;;5018311;28;19922;-27
2022/09/04 14:07:16;;;;;;;;;;;;;;;;;;5018256;28;20304;-27
2022/09/04 14:09:42;;;;;;;;;;;;;;;;;;5017976;28;19913;-27
2022/09/04 14:12:08;;;;;;;;;;;;;;;;;;5018105;28;19941;-27
2022/09/04 14:14:36;;;;;;;;;;;;;;;;;;5017874;28;19910;-27
2022/09/04 14:17:02;;;;;;;;;;;;;;;;;;5018098;28;19940;-27
2022/09/04 14:19:30;;;;;;;;;;;;;;;;;;5017747;28;19909;-27
2022/09/04 14:21:56;;;;;;;;;;;;;;;;;;5017845;28;19913;-27
2022/09/04 14:24:22;;;;;;;;;;;;;;;;;;5017735;28;19996;-27
2022/09/04 14:26:47;;;;;;;;;;;;;;;;;;5017646;28;19924;-27
2022/09/04 14:29:14;;;;;;;;;;;;;;;;;;5018191;28;20329;-27
2022/09/04 14:31:40;;;;;;;;;;;;;;;;;;5017564;28;19924;-27
2022/09/04 14:34:06;;;;;;;;;;;;;;;;;;5017730;28;19949;-27
2022/09/04 14:36:35;;;;;;;;;;;;;;;;;;5017370;28;20005;-27
2022/09/04 14:39:01;;;;;;;;;;;;;;;;;;5017695;28;19999;-27
2022/09/04 14:41:28;;;;;;;;;;;;;;;;;;5017629;28;19914;-28
2022/09/04 14:43:58;;;;;;;;;;;;;;;;;;5017168;28;19913;-27
2022/09/04 14:46:27;;;;;;;;;;;;;;;;;;5017584;28;19921;-27
2022/09/04 14:48:53;;;;;;;;;;;;;;;;;;5017458;28;19913;-27
2022/09/04 14:51:19;;;;;;;;;;;;;;;;;;5017089;28;19924;-27
2022/09/04 14:53:45;;;;;;;;;;;;;;;;;;5017335;28;19909;-27
2022/09/04 14:56:11;;;;;;;;;;;;;;;;;;5017053;28;19924;-27
2022/09/04 14:58:37;;;;;;;;;;;;;;;;;;5017057;28;19932;-27
2022/09/04 15:01:04;;;;;;;;;;;;;;;;;;5017248;28;20008;-27
2022/09/04 15:03:30;;;;;;;;;;;;;;;;;;5017003;28;20348;-27
2022/09/04 15:05:57;;;;;;;;;;;;;;;;;;5016824;28;19913;-27
2022/09/04 15:08:23;;;;;;;;;;;;;;;;;;5016936;28;20284;-27
2022/09/04 15:10:49;;;;;;;;;;;;;;;;;;5017386;28;19964;-27
2022/09/04 15:13:15;;;;;;;;;;;;;;;;;;5016948;28;19913;-28
2022/09/04 15:15:41;;;;;;;;;;;;;;;;;;5016678;28;20292;-27
2022/09/04 15:18:07;;;;;;;;;;;;;;;;;;5016620;28;20365;-28
2022/09/04 15:20:34;;;;;;;;;;;;;;;;;;5017150;28;19914;-28
2022/09/04 15:23:00;;;;;;;;;;;;;;;;;;5016723;28;20317;-27
2022/09/04 15:25:26;;;;;;;;;;;;;;;;;;5016517;28;19964;-27
2022/09/04 15:27:53;;;;;;;;;;;;;;;;;;5017050;28;19952;-27
2022/09/04 15:30:19;;;;;;;;;;;;;;;;;;5016716;28;19913;-27
2022/09/04 15:32:45;;;;;;;;;;;;;;;;;;5016549;28;19909;-27
2022/09/04 15:35:11;;;;;;;;;;;;;;;;;;5016445;28;20248;-27
2022/09/04 15:37:37;;;;;;;;;;;;;;;;;;5016588;28;20320;-27
2022/09/04 15:40:03;;;;;;;;;;;;;;;;;;5016246;28;19936;-27
2022/09/04 15:42:29;;;;;;;;;;;;;;;;;;5016484;28;19921;-27
2022/09/04 15:44:55;;;;;;;;;;;;;;;;;;5016183;28;19910;-27
2022/09/04 15:47:22;;;;;;;;;;;;;;;;;;5016122;28;19959;-27
2022/09/04 15:49:48;;;;;;;;;;;;;;;;;;5016131;28;19919;-27
2022/09/04 15:52:13;;;;;;;;;;;;;;;;;;5016013;28;19913;-27
2022/09/04 15:54:40;;;;;;;;;;;;;;;;;;5015653;28;20341;-27
2022/09/04 15:57:07;;;;;;;;;;;;;;;;;;5016512;28;19921;-27
2022/09/04 15:59:33;;;;;;;;;;;;;;;;;;5015916;28;19920;-27
2022/09/04 16:01:59;;;;;;;;;;;;;;;;;;5015770;28;19913;-27
2022/09/04 16:04:25;;;;;;;;;;;;;;;;;;5015706;28;19932;-27
2022/09/04 16:06:53;;;;;;;;;;;;;;;;;;5016102;28;19909;-27
2022/09/04 16:09:19;;;;;;;;;;;;;;;;;;5015856;28;19919;-27
2022/09/04 16:11:45;;;;;;;;;;;;;;;;;;5015766;28;19940;-27
2022/09/04 16:14:11;;;;;;;;;;;;;;;;;;5015664;28;19969;-27
2022/09/04 16:16:38;;;;;;;;;;;;;;;;;;5015659;28;19914;-27
2022/09/04 16:19:04;;;;;;;;;;;;;;;;;;5015669;28;20340;-27
2022/09/04 16:21:30;;;;;;;;;;;;;;;;;;5015908;28;20047;-27
2022/09/04 16:23:58;;;;;;;;;;;;;;;;;;5015471;28;20000;-27
2022/09/04 16:26:24;;;;;;;;;;;;;;;;;;5015518;28;19913;-27
2022/09/04 16:28:51;;;;;;;;;;;;;;;;;;5015797;28;19920;-27
2022/09/04 16:31:17;;;;;;;;;;;;;;;;;;5015504;28;20407;-27
2022/09/04 16:33:43;;;;;;;;;;;;;;;;;;5015566;28;19913;-27
2022/09/04 16:36:10;;;;;;;;;;;;;;;;;;5016015;28;20349;-27
2022/09/04 16:38:39;;;;;;;;;;;;;;;;;;5016044;28;19950;-27
2022/09/04 16:41:05;;;;;;;;;;;;;;;;;;5015395;28;19913;-27
2022/09/04 16:43:32;;;;;;;;;;;;;;;;;;5015205;28;20280;-27